Time;durP1;ratioP1;P1;durP2;ratioP2;P2;SDS_P1;SDS_P2;PMS_P1;PMS_P2;Temp;Humidity;BMP_temperature;BMP_pressure;BME280_temperature;BME280_humidity;BME280_pressure;Samples;Min_cycle;Max_cycle;Signal;HPM_P1;HPM_P2
2023/03/16 00:02:01;;;;;;;0.60;0.60;;;0.80;99.90;;;;;;5046047;28;20919;-78
2023/03/16 00:04:26;;;;;;;0.43;0.43;;;0.70;99.90;;;;;;5030468;28;20561;-78
2023/03/16 00:06:52;;;;;;;0.60;0.60;;;0.80;99.90;;;;;;5025556;28;20253;-79
2023/03/16 00:09:17;;;;;;;0.50;0.50;;;0.90;99.90;;;;;;5036555;28;20199;-78
2023/03/16 00:11:43;;;;;;;0.40;0.40;;;1.00;99.90;;;;;;5035166;28;20234;-78
2023/03/16 00:14:08;;;;;;;0.43;0.43;;;1.00;99.90;;;;;;5029583;28;20191;-78
2023/03/16 00:16:34;;;;;;;0.40;0.40;;;0.90;99.90;;;;;;5019792;28;20230;-79
2023/03/16 00:19:02;;;;;;;0.33;0.33;;;1.00;99.90;;;;;;5030973;28;20626;-79
2023/03/16 00:21:31;;;;;;;0.43;0.43;;;0.90;99.90;;;;;;5024177;28;20194;-79
2023/03/16 00:24:02;;;;;;;0.50;0.50;;;0.70;99.90;;;;;;5026626;28;20451;-78
2023/03/16 00:26:27;;;;;;;0.40;0.40;;;0.80;99.90;;;;;;5028388;28;21031;-79
2023/03/16 00:28:53;;;;;;;0.50;0.50;;;0.80;99.90;;;;;;5043555;28;20425;-79
2023/03/16 00:31:19;;;;;;;0.50;0.50;;;0.90;99.90;;;;;;5034822;28;20223;-79
2023/03/16 00:33:44;;;;;;;0.50;0.50;;;0.80;99.90;;;;;;5030980;28;20199;-79
2023/03/16 00:36:11;;;;;;;0.40;0.40;;;0.50;99.90;;;;;;5040296;28;20461;-78
2023/03/16 00:38:44;;;;;;;0.40;0.40;;;0.70;99.90;;;;;;5030995;28;20178;-78
2023/03/16 00:41:13;;;;;;;0.47;0.47;;;0.60;99.90;;;;;;5027650;28;20442;-79
2023/03/16 00:43:43;;;;;;;0.40;0.40;;;0.70;99.90;;;;;;5030517;28;21168;-78
2023/03/16 00:46:14;;;;;;;0.40;0.40;;;0.40;99.90;;;;;;5028524;28;20450;-79
2023/03/16 00:48:42;;;;;;;0.30;0.30;;;0.50;99.90;;;;;;5029530;28;20775;-78
2023/03/16 00:51:11;;;;;;;0.40;0.40;;;0.40;99.90;;;;;;5029989;28;20498;-79
2023/03/16 00:53:38;;;;;;;0.57;0.57;;;0.30;99.90;;;;;;5029045;28;20451;-79
2023/03/16 00:56:04;;;;;;;0.50;0.50;;;0.20;99.90;;;;;;5029678;28;20787;-79
2023/03/16 00:58:34;;;;;;;0.50;0.50;;;0.30;99.90;;;;;;5027455;28;20454;-79
2023/03/16 01:01:02;;;;;;;0.50;0.50;;;0.50;99.90;;;;;;5032401;28;20441;-79
2023/03/16 01:03:28;;;;;;;0.60;0.60;;;0.40;99.90;;;;;;5031017;28;20899;-79
2023/03/16 01:05:58;;;;;;;0.60;0.60;;;0.40;99.90;;;;;;5020708;28;20438;-78
2023/03/16 01:08:26;;;;;;;0.60;0.60;;;0.40;99.90;;;;;;5031598;28;20191;-78
2023/03/16 01:10:53;;;;;;;0.50;0.50;;;0.30;99.90;;;;;;5036806;28;20480;-79
2023/03/16 01:13:18;;;;;;;0.40;0.40;;;0.30;99.90;;;;;;5040496;28;20454;-79
2023/03/16 01:15:44;;;;;;;0.60;0.60;;;0.00;99.90;;;;;;5035902;28;20433;-79
2023/03/16 01:18:12;;;;;;;0.50;0.50;;;0.00;99.90;;;;;;5048230;28;20320;-78
2023/03/16 01:20:38;;;;;;;0.60;0.60;;;-0.20;99.90;;;;;;5035060;28;20442;-79
2023/03/16 01:23:03;;;;;;;0.50;0.50;;;0.00;99.90;;;;;;5023390;28;20488;-79
2023/03/16 01:25:29;;;;;;;0.50;0.50;;;0.00;99.90;;;;;;5034263;28;20483;-79
2023/03/16 01:27:55;;;;;;;0.43;0.43;;;0.20;99.90;;;;;;5036363;28;20286;-79
2023/03/16 01:30:20;;;;;;;0.57;0.57;;;0.30;99.90;;;;;;5030173;28;20276;-79
2023/03/16 01:32:46;;;;;;;0.40;0.40;;;0.10;99.90;;;;;;5014551;28;20191;-79
2023/03/16 01:35:11;;;;;;;0.50;0.50;;;0.50;99.90;;;;;;5030438;28;20191;-79
2023/03/16 01:37:37;;;;;;;0.60;0.60;;;0.30;99.90;;;;;;5049489;28;20202;-79
2023/03/16 01:40:05;;;;;;;0.60;0.60;;;0.00;99.90;;;;;;5028629;28;20195;-79
2023/03/16 01:42:31;;;;;;;0.60;0.60;;;-0.40;99.90;;;;;;5029474;28;20199;-78
2023/03/16 01:45:04;;;;;;;0.60;0.60;;;-0.20;99.90;;;;;;5028656;28;20446;-78
2023/03/16 01:47:36;;;;;;;0.50;0.50;;;-0.20;99.90;;;;;;5028281;28;22036;-79
2023/03/16 01:50:04;;;;;;;0.50;0.50;;;-0.20;99.90;;;;;;5026803;28;20823;-79
2023/03/16 01:52:34;;;;;;;0.60;0.60;;;-0.30;99.90;;;;;;5029747;28;20973;-79
2023/03/16 01:55:07;;;;;;;0.40;0.40;;;-0.30;99.90;;;;;;5044445;28;20628;-79
2023/03/16 01:57:38;;;;;;;0.50;0.50;;;0.20;99.90;;;;;;5011657;28;20455;-79
2023/03/16 02:00:18;;;;;;;0.50;0.50;;;0.00;99.90;;;;;;5031622;28;20453;-78
2023/03/16 02:02:47;;;;;;;0.43;0.43;;;0.00;99.90;;;;;;5044897;28;21048;-79
2023/03/16 02:05:18;;;;;;;0.50;0.50;;;0.20;99.90;;;;;;5034432;28;20444;-79
2023/03/16 02:07:47;;;;;;;0.40;0.40;;;0.30;99.90;;;;;;5029609;28;20449;-79
2023/03/16 02:10:14;;;;;;;0.60;0.60;;;0.50;99.90;;;;;;5007750;28;20450;-78
2023/03/16 02:12:40;;;;;;;0.50;0.50;;;0.30;99.90;;;;;;5041991;28;20805;-79
2023/03/16 02:15:06;;;;;;;0.53;0.53;;;0.40;99.90;;;;;;5027408;28;20521;-79
2023/03/16 02:17:33;;;;;;;0.50;0.50;;;0.30;99.90;;;;;;5032606;28;20206;-79
2023/03/16 02:20:24;;;;;;;0.60;0.60;;;0.30;99.90;;;;;;5030535;28;20532;-79
2023/03/16 02:22:55;;;;;;;0.40;0.40;;;0.10;99.90;;;;;;5026797;28;20453;-79
2023/03/16 02:25:51;;;;;;;0.40;0.40;;;0.20;99.90;;;;;;5032166;28;21018;-79
2023/03/16 02:28:25;;;;;;;0.50;0.50;;;0.20;99.90;;;;;;5022565;28;20451;-79
2023/03/16 02:30:52;;;;;;;0.50;0.50;;;0.40;99.90;;;;;;4999593;28;20463;-79
2023/03/16 02:33:20;;;;;;;0.50;0.50;;;0.40;99.90;;;;;;5026418;28;21278;-79
2023/03/16 02:35:45;;;;;;;0.50;0.50;;;0.20;99.90;;;;;;5027823;28;20786;-79
2023/03/16 02:38:11;;;;;;;0.50;0.50;;;0.30;99.90;;;;;;5031220;28;20453;-78
2023/03/16 02:40:37;;;;;;;0.47;0.47;;;0.50;99.90;;;;;;5027404;28;20194;-79
2023/03/16 02:43:11;;;;;;;0.60;0.60;;;0.40;99.90;;;;;;5041883;28;20310;-79
2023/03/16 02:45:44;;;;;;;0.60;0.60;;;0.40;99.90;;;;;;5036763;28;20960;-79
2023/03/16 02:48:17;;;;;;;0.57;0.57;;;0.40;99.90;;;;;;5037238;28;20521;-79
2023/03/16 02:50:51;;;;;;;0.40;0.40;;;0.50;99.90;;;;;;5031821;28;20553;-78
2023/03/16 02:53:17;;;;;;;0.50;0.50;;;0.50;99.90;;;;;;5032091;28;20454;-79
2023/03/16 02:55:43;;;;;;;0.50;0.50;;;0.30;99.90;;;;;;5037155;28;20442;-78
2023/03/16 02:58:10;;;;;;;0.40;0.40;;;0.30;99.90;;;;;;5032756;28;20963;-79
2023/03/16 03:00:37;;;;;;;0.50;0.50;;;0.30;99.90;;;;;;5030413;28;20438;-79
2023/03/16 03:03:03;;;;;;;0.60;0.60;;;0.50;99.90;;;;;;5030485;28;20994;-79
2023/03/16 03:05:29;;;;;;;0.50;0.50;;;0.40;99.90;;;;;;5031863;28;20500;-78
2023/03/16 03:07:55;;;;;;;0.50;0.50;;;0.50;99.90;;;;;;5024643;28;20437;-79
2023/03/16 03:10:21;;;;;;;0.60;0.60;;;0.40;99.90;;;;;;5025559;28;20187;-79
2023/03/16 03:12:48;;;;;;;0.57;0.57;;;0.50;99.90;;;;;;5013485;28;20449;-78
2023/03/16 03:15:14;;;;;;;0.60;0.60;;;0.60;99.90;;;;;;5027040;28;20190;-78
2023/03/16 03:17:41;;;;;;;0.40;0.40;;;0.40;99.90;;;;;;5032571;28;20431;-79
2023/03/16 03:20:14;;;;;;;0.53;0.53;;;0.30;99.90;;;;;;5018442;28;20434;-79
2023/03/16 03:22:40;;;;;;;0.63;0.63;;;0.40;99.90;;;;;;5036344;28;20449;-78
2023/03/16 03:25:06;;;;;;;0.50;0.50;;;0.40;99.90;;;;;;5046006;28;20453;-79
2023/03/16 03:27:32;;;;;;;0.57;0.57;;;0.30;99.90;;;;;;5030930;28;20176;-79
2023/03/16 03:29:57;;;;;;;0.70;0.70;;;0.50;99.90;;;;;;5029714;28;20822;-79
2023/03/16 03:32:23;;;;;;;0.50;0.50;;;0.20;99.90;;;;;;5031305;28;20920;-79
2023/03/16 03:34:49;;;;;;;0.70;0.70;;;0.50;99.90;;;;;;5028454;28;20629;-78
2023/03/16 03:37:14;;;;;;;0.47;0.47;;;0.40;99.90;;;;;;5030130;28;20278;-78
2023/03/16 03:39:40;;;;;;;0.50;0.50;;;0.20;99.90;;;;;;5026565;28;20180;-78
2023/03/16 03:42:06;;;;;;;0.43;0.43;;;0.20;99.90;;;;;;5011770;28;20675;-78
2023/03/16 03:44:33;;;;;;;0.50;0.50;;;0.20;99.90;;;;;;5026959;28;20297;-78
2023/03/16 03:46:59;;;;;;;0.50;0.50;;;0.20;99.90;;;;;;5019753;28;20446;-79
2023/03/16 03:49:25;;;;;;;0.60;0.60;;;0.30;99.90;;;;;;5017891;28;20988;-78
2023/03/16 03:51:50;;;;;;;0.70;0.70;;;0.40;99.90;;;;;;5033896;28;20499;-79
2023/03/16 03:54:16;;;;;;;0.60;0.60;;;0.50;99.90;;;;;;5038862;28;20228;-78
2023/03/16 03:56:42;;;;;;;0.50;0.50;;;0.40;99.90;;;;;;5044912;28;20651;-78
2023/03/16 03:59:07;;;;;;;0.60;0.60;;;0.60;99.90;;;;;;5038617;28;20192;-79
2023/03/16 04:01:33;;;;;;;0.40;0.40;;;0.60;99.90;;;;;;5029851;28;20446;-78
2023/03/16 04:03:58;;;;;;;0.60;0.60;;;0.30;99.90;;;;;;5024552;28;20211;-78
2023/03/16 04:06:24;;;;;;;0.50;0.50;;;0.50;99.90;;;;;;5029467;28;20290;-78
2023/03/16 04:08:50;;;;;;;0.60;0.60;;;0.60;99.90;;;;;;5030879;28;20188;-79
2023/03/16 04:11:15;;;;;;;0.60;0.60;;;0.50;99.90;;;;;;5032186;28;20233;-79
2023/03/16 04:13:41;;;;;;;0.70;0.70;;;0.70;99.90;;;;;;5045762;28;20539;-78
2023/03/16 04:16:07;;;;;;;0.60;0.60;;;0.70;99.90;;;;;;5011382;28;20214;-78
2023/03/16 04:18:37;;;;;;;0.50;0.50;;;0.70;99.90;;;;;;5023721;28;20183;-79
2023/03/16 04:21:06;;;;;;;0.60;0.60;;;0.60;99.90;;;;;;5030459;28;20543;-78
2023/03/16 04:23:33;;;;;;;0.57;0.57;;;0.80;99.90;;;;;;5036926;28;20441;-78
2023/03/16 04:25:59;;;;;;;0.40;0.40;;;0.80;99.90;;;;;;5036426;28;20796;-79
2023/03/16 04:28:25;;;;;;;0.60;0.60;;;0.80;99.90;;;;;;5033933;28;20496;-79
2023/03/16 04:30:55;;;;;;;0.47;0.47;;;0.80;99.90;;;;;;5039263;28;20464;-78
2023/03/16 04:33:21;;;;;;;0.50;0.50;;;0.70;99.90;;;;;;5034444;28;20458;-79
2023/03/16 04:35:47;;;;;;;0.40;0.40;;;0.60;99.90;;;;;;5030592;28;20473;-78
2023/03/16 04:38:12;;;;;;;0.50;0.50;;;0.60;99.90;;;;;;5025700;28;20458;-78
2023/03/16 04:40:38;;;;;;;0.43;0.43;;;0.50;99.90;;;;;;5018561;28;20422;-79
2023/03/16 04:43:03;;;;;;;0.37;0.37;;;0.30;99.90;;;;;;5033382;28;20245;-79
2023/03/16 04:45:29;;;;;;;0.37;0.37;;;0.40;99.90;;;;;;5031986;28;20266;-78
2023/03/16 04:47:55;;;;;;;0.43;0.43;;;0.30;99.90;;;;;;5029921;28;20191;-78
2023/03/16 04:50:21;;;;;;;0.50;0.50;;;0.20;99.90;;;;;;5030801;28;20195;-78
2023/03/16 04:52:47;;;;;;;0.50;0.50;;;0.10;99.90;;;;;;5041068;28;20997;-79
2023/03/16 04:55:12;;;;;;;0.40;0.40;;;0.20;99.90;;;;;;5038342;28;20436;-78
2023/03/16 04:57:38;;;;;;;0.50;0.50;;;0.20;99.90;;;;;;5029440;28;20714;-78
2023/03/16 05:00:14;;;;;;;0.40;0.40;;;0.20;99.90;;;;;;5040497;28;20218;-79
2023/03/16 05:02:40;;;;;;;0.60;0.60;;;0.50;99.90;;;;;;5014594;28;20662;-79
2023/03/16 05:05:06;;;;;;;0.60;0.60;;;0.40;99.90;;;;;;5030942;28;20457;-78
2023/03/16 05:07:31;;;;;;;0.50;0.50;;;0.60;99.90;;;;;;5029685;28;20439;-78
2023/03/16 05:09:57;;;;;;;0.50;0.50;;;0.60;99.90;;;;;;5037373;28;20180;-79
2023/03/16 05:12:22;;;;;;;0.43;0.43;;;0.40;99.90;;;;;;5029031;28;20218;-78
2023/03/16 05:14:48;;;;;;;0.47;0.47;;;0.40;99.90;;;;;;5028326;28;20190;-78
2023/03/16 05:17:13;;;;;;;0.50;0.50;;;0.30;99.90;;;;;;5025359;28;20192;-78
2023/03/16 05:19:41;;;;;;;0.60;0.60;;;0.50;99.90;;;;;;5026240;28;20754;-79
2023/03/16 05:22:07;;;;;;;0.60;0.60;;;0.40;99.90;;;;;;5021843;28;20192;-78
2023/03/16 05:24:32;;;;;;;0.50;0.50;;;0.20;99.90;;;;;;5027855;28;20450;-78
2023/03/16 05:26:58;;;;;;;0.60;0.60;;;0.20;99.90;;;;;;5029001;28;20626;-79
2023/03/16 05:29:24;;;;;;;0.60;0.60;;;0.50;99.90;;;;;;5026572;28;20245;-79
2023/03/16 05:31:50;;;;;;;0.60;0.60;;;0.50;99.90;;;;;;5023933;28;20549;-78
2023/03/16 05:34:15;;;;;;;0.60;0.60;;;0.30;99.90;;;;;;5031132;28;20453;-79
2023/03/16 05:36:43;;;;;;;0.60;0.60;;;0.40;99.90;;;;;;4999553;28;20195;-79
2023/03/16 05:39:09;;;;;;;0.40;0.40;;;0.40;99.90;;;;;;5026753;28;20184;-78
2023/03/16 05:41:35;;;;;;;0.50;0.50;;;0.70;99.90;;;;;;5029537;28;20449;-78
2023/03/16 05:44:00;;;;;;;0.50;0.50;;;0.60;99.90;;;;;;5040587;28;20230;-78
2023/03/16 05:46:26;;;;;;;0.40;0.40;;;0.60;99.90;;;;;;5031087;28;20750;-78
2023/03/16 05:48:51;;;;;;;0.40;0.40;;;0.50;99.90;;;;;;5031799;28;20214;-78
2023/03/16 05:51:17;;;;;;;0.40;0.40;;;0.50;99.90;;;;;;5032848;28;20219;-78
2023/03/16 05:53:45;;;;;;;0.50;0.50;;;0.80;99.90;;;;;;5029553;28;20262;-78
2023/03/16 05:56:11;;;;;;;0.50;0.50;;;0.80;99.90;;;;;;5029538;28;20582;-78
2023/03/16 05:58:36;;;;;;;0.50;0.50;;;0.80;99.90;;;;;;5041957;28;20579;-78
2023/03/16 06:01:04;;;;;;;0.40;0.40;;;0.90;99.90;;;;;;5030516;28;20241;-79
2023/03/16 06:03:30;;;;;;;0.60;0.60;;;0.80;99.90;;;;;;5023874;28;20941;-79
2023/03/16 06:05:56;;;;;;;0.47;0.47;;;0.80;99.90;;;;;;5021089;28;20438;-79
2023/03/16 06:08:21;;;;;;;0.50;0.50;;;0.80;99.90;;;;;;5027647;28;20470;-78
2023/03/16 06:10:47;;;;;;;0.50;0.50;;;1.00;99.90;;;;;;5034274;28;20221;-78
2023/03/16 06:13:13;;;;;;;0.53;0.53;;;1.00;99.90;;;;;;5035811;28;20560;-79
2023/03/16 06:15:39;;;;;;;0.40;0.40;;;1.20;99.90;;;;;;5042823;28;20452;-79
2023/03/16 06:18:05;;;;;;;0.50;0.50;;;1.30;99.90;;;;;;5035846;28;20187;-78
2023/03/16 06:20:30;;;;;;;0.60;0.60;;;1.20;99.90;;;;;;5044484;28;20452;-78
2023/03/16 06:22:56;;;;;;;0.47;0.47;;;1.30;99.90;;;;;;5022873;28;20656;-78
2023/03/16 06:25:22;;;;;;;0.50;0.50;;;1.30;99.90;;;;;;5044592;28;20183;-79
2023/03/16 06:27:48;;;;;;;0.50;0.50;;;1.40;99.90;;;;;;5027478;28;20661;-80
2023/03/16 06:30:15;;;;;;;0.43;0.43;;;1.50;99.90;;;;;;5033617;28;20447;-78
2023/03/16 06:32:41;;;;;;;0.50;0.50;;;1.50;99.90;;;;;;5027326;28;20582;-79
2023/03/16 06:35:08;;;;;;;0.50;0.50;;;1.70;99.90;;;;;;5024271;28;20449;-78
2023/03/16 06:37:34;;;;;;;0.40;0.40;;;1.70;99.90;;;;;;5020767;28;20861;-79
2023/03/16 06:40:00;;;;;;;0.40;0.40;;;1.70;99.90;;;;;;5023697;28;20448;-79
2023/03/16 06:42:25;;;;;;;0.30;0.30;;;1.80;99.90;;;;;;5024806;28;20541;-78
2023/03/16 06:44:51;;;;;;;0.43;0.43;;;1.90;99.90;;;;;;5030413;28;20238;-79
2023/03/16 06:47:17;;;;;;;0.50;0.50;;;1.90;99.90;;;;;;5034890;28;20191;-78
2023/03/16 06:49:43;;;;;;;0.50;0.50;;;2.00;99.90;;;;;;5031405;28;20437;-79
2023/03/16 06:52:09;;;;;;;0.40;0.40;;;2.10;99.90;;;;;;5027270;28;20219;-78
2023/03/16 06:54:36;;;;;;;0.40;0.40;;;2.10;99.90;;;;;;5022663;28;20778;-79
2023/03/16 06:57:02;;;;;;;0.40;0.40;;;2.10;99.90;;;;;;5027324;28;20500;-78
2023/03/16 06:59:28;;;;;;;0.50;0.50;;;2.20;99.90;;;;;;5025784;28;20679;-78
2023/03/16 07:01:54;;;;;;;0.40;0.40;;;2.20;99.90;;;;;;5026849;28;20438;-78
2023/03/16 07:04:20;;;;;;;0.40;0.40;;;2.10;99.90;;;;;;5022322;28;20445;-78
2023/03/16 07:06:46;;;;;;;0.50;0.50;;;2.30;99.90;;;;;;5028590;28;20450;-78
2023/03/16 07:09:11;;;;;;;0.50;0.50;;;2.30;99.90;;;;;;5024891;28;20187;-78
2023/03/16 07:11:37;;;;;;;0.40;0.40;;;2.40;99.90;;;;;;5016022;28;20223;-78
2023/03/16 07:14:03;;;;;;;0.40;0.40;;;2.30;99.90;;;;;;5000143;28;20188;-78
2023/03/16 07:16:29;;;;;;;0.50;0.50;;;2.40;99.90;;;;;;5018439;28;20445;-78
2023/03/16 07:18:54;;;;;;;0.40;0.40;;;2.30;99.90;;;;;;5013447;28;20214;-78
2023/03/16 07:21:20;;;;;;;0.50;0.50;;;2.40;99.90;;;;;;5000015;28;20326;-76
2023/03/16 07:23:46;;;;;;;0.50;0.50;;;2.50;99.90;;;;;;5020218;28;20268;-77
2023/03/16 07:26:12;;;;;;;0.50;0.50;;;2.60;99.90;;;;;;5025856;28;20438;-78
2023/03/16 07:28:38;;;;;;;0.50;0.50;;;2.70;99.90;;;;;;5020587;28;20354;-78
2023/03/16 07:31:05;;;;;;;0.40;0.40;;;2.60;99.90;;;;;;5012225;28;20581;-77
2023/03/16 07:33:32;;;;;;;0.50;0.50;;;2.70;99.90;;;;;;5017281;28;20681;-77
2023/03/16 07:35:58;;;;;;;0.50;0.50;;;2.80;99.90;;;;;;5026451;28;20500;-79
2023/03/16 07:38:23;;;;;;;0.40;0.40;;;2.80;99.90;;;;;;5020926;28;20446;-79
2023/03/16 07:40:51;;;;;;;0.50;0.50;;;2.90;99.90;;;;;;5028548;28;20188;-79
2023/03/16 07:43:16;;;;;;;0.40;0.40;;;3.00;99.90;;;;;;5031064;28;20231;-79
2023/03/16 07:45:47;;;;;;;0.50;0.50;;;2.80;99.90;;;;;;5014156;28;20777;-79
2023/03/16 07:48:12;;;;;;;0.47;0.47;;;3.00;99.90;;;;;;5027342;28;20233;-79
2023/03/16 07:50:38;;;;;;;0.40;0.40;;;2.90;99.90;;;;;;5023223;28;20438;-79
2023/03/16 07:53:04;;;;;;;0.50;0.50;;;2.70;99.90;;;;;;5034039;28;20200;-79
2023/03/16 07:55:30;;;;;;;0.43;0.43;;;2.90;99.90;;;;;;5030913;28;20186;-79
2023/03/16 07:57:56;;;;;;;0.43;0.43;;;3.00;99.90;;;;;;5029741;28;20445;-79
2023/03/16 08:00:22;;;;;;;0.40;0.40;;;2.90;99.90;;;;;;5020527;28;20434;-79
2023/03/16 08:02:49;;;;;;;0.40;0.40;;;2.90;99.90;;;;;;5031702;28;20227;-79
2023/03/16 08:05:15;;;;;;;0.40;0.40;;;3.20;99.90;;;;;;5013713;28;20419;-79
2023/03/16 08:07:40;;;;;;;0.30;0.30;;;3.10;99.90;;;;;;5021950;28;20447;-79
2023/03/16 08:10:06;;;;;;;0.50;0.50;;;3.30;99.90;;;;;;5010500;28;20430;-79
2023/03/16 08:12:32;;;;;;;0.40;0.40;;;3.30;99.90;;;;;;5012083;28;20238;-79
2023/03/16 08:14:58;;;;;;;0.30;0.30;;;3.40;99.90;;;;;;5012095;28;20914;-79
2023/03/16 08:17:23;;;;;;;0.30;0.30;;;3.60;99.90;;;;;;4994365;28;20438;-79
2023/03/16 08:19:49;;;;;;;0.50;0.50;;;3.80;99.90;;;;;;5011690;28;20262;-79
2023/03/16 08:22:14;;;;;;;0.40;0.40;;;3.90;99.90;;;;;;5012200;28;20184;-79
2023/03/16 08:24:41;;;;;;;0.43;0.43;;;3.90;99.90;;;;;;5015650;28;20191;-79
2023/03/16 08:27:06;;;;;;;0.30;0.30;;;4.00;99.90;;;;;;5015454;28;20447;-79
2023/03/16 08:29:36;;;;;;;0.40;0.40;;;3.90;99.90;;;;;;5022936;28;20180;-79
2023/03/16 08:32:02;;;;;;;0.40;0.40;;;3.90;99.90;;;;;;5029412;28;20713;-79
2023/03/16 08:34:29;;;;;;;0.40;0.40;;;3.90;99.90;;;;;;5031665;28;20414;-78
2023/03/16 08:36:54;;;;;;;0.50;0.50;;;4.10;99.90;;;;;;5031068;28;20234;-79
2023/03/16 08:39:20;;;;;;;0.30;0.30;;;4.10;99.90;;;;;;5031231;28;20426;-79
2023/03/16 08:41:47;;;;;;;0.40;0.40;;;4.20;99.90;;;;;;5031513;28;20183;-79
2023/03/16 08:44:12;;;;;;;0.40;0.40;;;4.20;99.90;;;;;;5010918;28;20249;-79
2023/03/16 08:46:39;;;;;;;0.40;0.40;;;4.20;99.90;;;;;;5024869;28;20451;-79
2023/03/16 08:49:05;;;;;;;0.40;0.40;;;4.30;99.90;;;;;;5010915;28;20192;-79
2023/03/16 08:51:31;;;;;;;0.40;0.40;;;4.30;99.90;;;;;;5025621;28;20485;-79
2023/03/16 08:53:58;;;;;;;0.40;0.40;;;4.30;99.90;;;;;;5016435;28;20477;-79
2023/03/16 08:56:24;;;;;;;0.40;0.40;;;4.40;99.90;;;;;;5012436;28;20972;-79
2023/03/16 08:58:50;;;;;;;0.30;0.30;;;4.40;99.90;;;;;;5015631;28;20447;-79
2023/03/16 09:01:19;;;;;;;0.40;0.40;;;4.50;99.90;;;;;;5010100;28;20242;-79
2023/03/16 09:03:45;;;;;;;0.40;0.40;;;4.70;99.90;;;;;;5011086;28;20431;-79
2023/03/16 09:06:13;;;;;;;0.30;0.30;;;4.80;99.90;;;;;;5015664;28;20442;-79
2023/03/16 09:08:40;;;;;;;0.40;0.40;;;4.90;99.90;;;;;;5026317;28;20847;-79
2023/03/16 09:11:11;;;;;;;0.30;0.30;;;4.90;99.90;;;;;;5023450;28;20465;-79
2023/03/16 09:13:38;;;;;;;0.40;0.40;;;4.90;99.90;;;;;;5028265;28;21004;-78
2023/03/16 09:16:05;;;;;;;0.50;0.50;;;4.90;99.90;;;;;;5021583;28;20515;-80
2023/03/16 09:18:31;;;;;;;0.40;0.40;;;4.80;99.90;;;;;;5024604;28;20451;-79
2023/03/16 09:20:58;;;;;;;0.40;0.40;;;4.90;99.90;;;;;;5021989;28;20446;-79
2023/03/16 09:23:25;;;;;;;0.40;0.40;;;4.90;99.90;;;;;;5021810;28;20800;-79
2023/03/16 09:25:52;;;;;;;0.40;0.40;;;4.90;99.90;;;;;;5028816;28;20418;-78
2023/03/16 09:28:18;;;;;;;0.40;0.40;;;5.00;99.90;;;;;;5043792;28;20493;-79
2023/03/16 09:30:43;;;;;;;0.30;0.30;;;5.00;99.90;;;;;;5013497;28;20447;-78
2023/03/16 09:33:09;;;;;;;0.30;0.30;;;5.00;99.90;;;;;;5020628;28;20981;-79
2023/03/16 09:35:35;;;;;;;0.20;0.20;;;5.10;99.90;;;;;;5020936;28;20620;-79
2023/03/16 09:38:02;;;;;;;0.20;0.20;;;5.20;99.90;;;;;;5027036;28;20662;-80
2023/03/16 09:40:29;;;;;;;0.40;0.40;;;5.30;99.90;;;;;;5028350;28;20552;-79
2023/03/16 09:43:13;;;;;;;0.30;0.30;;;5.40;99.90;;;;;;5030461;28;21023;-80
2023/03/16 09:45:58;;;;;;;0.40;0.40;;;5.60;99.90;;;;;;5036733;28;20473;-79
2023/03/16 09:48:25;;;;;;;0.30;0.30;;;5.70;99.90;;;;;;5018966;28;20523;-79
2023/03/16 09:50:54;;;;;;;0.30;0.30;;;5.80;99.90;;;;;;5023042;28;20474;-80
2023/03/16 09:53:39;;;;;;;0.40;0.40;;;5.80;99.90;;;;;;5039369;28;20457;-80
2023/03/16 09:56:12;;;;;;;0.30;0.30;;;5.90;99.90;;;;;;5019855;28;20527;-80
2023/03/16 09:58:38;;;;;;;0.40;0.40;;;6.00;99.90;;;;;;5043682;28;20781;-80
2023/03/16 10:01:39;;;;;;;0.30;0.30;;;6.10;99.90;;;;;;5030912;28;20988;-80
2023/03/16 10:04:28;;;;;;;0.40;0.40;;;6.70;99.90;;;;;;5019866;28;20471;-80
2023/03/16 10:07:06;;;;;;;0.30;0.30;;;7.20;99.90;;;;;;5042647;28;20846;-80
2023/03/16 10:09:51;;;;;;;0.30;0.30;;;7.60;99.90;;;;;;5034168;28;20429;-79
2023/03/16 10:12:18;;;;;;;0.30;0.30;;;8.10;99.90;;;;;;5012126;28;20491;-80
2023/03/16 10:14:51;;;;;;;0.30;0.30;;;7.70;99.90;;;;;;5031161;28;20868;-80
2023/03/16 10:17:41;;;;;;;0.30;0.30;;;7.70;99.90;;;;;;5037326;28;20479;-79
2023/03/16 10:20:14;;;;;;;0.30;0.30;;;7.80;99.90;;;;;;5013304;28;20813;-80
2023/03/16 10:22:44;;;;;;;0.30;0.30;;;7.60;99.90;;;;;;5029465;28;20445;-79
2023/03/16 10:25:24;;;;;;;0.30;0.30;;;7.50;99.90;;;;;;5019720;28;20837;-79
2023/03/16 10:27:51;;;;;;;0.30;0.30;;;7.30;99.90;;;;;;5011642;28;20470;-79
2023/03/16 10:30:37;;;;;;;0.30;0.30;;;7.20;99.90;;;;;;5011524;28;20449;-80
2023/03/16 10:33:17;;;;;;;0.30;0.30;;;7.10;99.90;;;;;;5017989;28;20537;-79
2023/03/16 10:35:50;;;;;;;0.30;0.30;;;7.10;99.90;;;;;;5015343;28;20866;-79
2023/03/16 10:38:54;;;;;;;0.30;0.30;;;7.30;99.90;;;;;;5024095;28;20469;-79
2023/03/16 10:41:32;;;;;;;0.20;0.20;;;7.30;99.90;;;;;;5029898;28;20934;-79
2023/03/16 10:44:06;;;;;;;0.30;0.30;;;7.40;99.90;;;;;;5040151;28;20474;-79
2023/03/16 10:46:47;;;;;;;0.30;0.30;;;7.50;99.90;;;;;;5017679;28;20488;-79
2023/03/16 10:49:28;;;;;;;0.30;0.30;;;8.10;99.90;;;;;;5030135;28;20440;-79
2023/03/16 10:51:58;;;;;;;0.30;0.30;;;8.10;99.90;;;;;;5033926;28;20535;-80
2023/03/16 10:54:37;;;;;;;0.30;0.30;;;7.90;99.90;;;;;;5027658;28;21293;-79
2023/03/16 10:57:24;;;;;;;0.30;0.30;;;7.40;99.90;;;;;;5034772;28;20507;-81
2023/03/16 10:59:56;;;;;;;0.20;0.20;;;7.50;99.90;;;;;;5028281;28;20442;-79
2023/03/16 11:02:31;;;;;;;0.27;0.27;;;7.70;99.90;;;;;;5031676;28;20468;-79
2023/03/16 11:04:57;;;;;;;0.30;0.30;;;7.70;99.90;;;;;;5023295;28;20851;-79
2023/03/16 11:07:24;;;;;;;0.30;0.30;;;7.50;99.90;;;;;;5026530;28;20458;-79
2023/03/16 11:09:51;;;;;;;0.23;0.23;;;7.40;99.90;;;;;;5023827;28;20195;-79
2023/03/16 11:12:30;;;;;;;0.30;0.30;;;7.70;99.90;;;;;;5028163;28;20551;-79
2023/03/16 11:15:12;;;;;;;0.30;0.30;;;7.60;99.90;;;;;;5028917;28;20544;-79
2023/03/16 11:17:44;;;;;;;0.30;0.30;;;7.60;99.90;;;;;;5031457;28;20587;-79
2023/03/16 11:20:32;;;;;;;0.20;0.20;;;8.00;99.90;;;;;;5030290;28;20442;-78
2023/03/16 11:22:59;;;;;;;0.30;0.30;;;8.00;99.90;;;;;;5031101;28;20451;-78
2023/03/16 11:25:45;;;;;;;0.30;0.30;;;8.20;99.90;;;;;;5026210;28;20459;-80
2023/03/16 11:28:16;;;;;;;0.20;0.20;;;8.10;99.90;;;;;;5042550;28;20453;-79
2023/03/16 11:30:55;;;;;;;0.20;0.20;;;8.10;99.90;;;;;;5041074;28;20933;-80
2023/03/16 11:33:20;;;;;;;0.20;0.20;;;8.30;99.90;;;;;;5027849;28;20493;-79
2023/03/16 11:35:58;;;;;;;0.27;0.27;;;8.50;99.90;;;;;;5028912;28;20489;-79
2023/03/16 11:38:49;;;;;;;0.30;0.30;;;8.30;99.90;;;;;;5031128;28;20191;-79
2023/03/16 11:41:37;;;;;;;0.30;0.30;;;8.40;99.90;;;;;;5030084;28;20822;-78
2023/03/16 11:44:21;;;;;;;0.30;0.30;;;8.40;99.90;;;;;;5023525;28;20480;-79
2023/03/16 11:47:02;;;;;;;0.20;0.20;;;8.60;99.90;;;;;;5028573;28;21145;-78
2023/03/16 11:49:55;;;;;;;0.20;0.20;;;8.80;99.90;;;;;;5043805;28;20437;-80
2023/03/16 11:52:53;;;;;;;0.20;0.20;;;8.60;99.90;;;;;;5028504;28;20486;-80
2023/03/16 11:55:28;;;;;;;0.30;0.30;;;8.40;99.90;;;;;;5001332;28;20456;-79
2023/03/16 11:58:22;;;;;;;0.30;0.30;;;8.30;99.90;;;;;;5039210;28;20438;-80
2023/03/16 12:01:26;;;;;;;0.23;0.23;;;8.20;99.90;;;;;;5024821;28;20457;-79
2023/03/16 12:04:15;;;;;;;0.30;0.30;;;8.10;99.90;;;;;;5017035;28;20537;-80
2023/03/16 12:07:20;;;;;;;0.30;0.30;;;8.20;99.90;;;;;;5033885;28;20450;-80
2023/03/16 12:10:12;;;;;;;0.30;0.30;;;8.10;99.90;;;;;;4985729;28;20493;-80
2023/03/16 12:12:49;;;;;;;0.20;0.20;;;8.20;99.90;;;;;;5016511;28;20486;-80
2023/03/16 12:15:38;;;;;;;0.30;0.30;;;8.20;99.90;;;;;;5018459;28;21217;-80
2023/03/16 12:18:25;;;;;;;0.30;0.30;;;8.20;99.90;;;;;;5012520;28;20942;-81
2023/03/16 12:20:59;;;;;;;0.30;0.30;;;8.20;99.90;;;;;;5030548;28;20442;-80
2023/03/16 12:23:52;;;;;;;0.20;0.20;;;8.30;99.90;;;;;;5023196;28;20830;-80
2023/03/16 12:26:19;;;;;;;0.10;0.10;;;8.40;99.90;;;;;;5031621;28;20541;-81
2023/03/16 12:28:47;;;;;;;0.20;0.20;;;8.50;99.90;;;;;;5026927;28;20455;-80
2023/03/16 12:31:27;;;;;;;0.30;0.30;;;8.70;99.90;;;;;;5008741;28;20468;-80
2023/03/16 12:34:01;;;;;;;0.20;0.20;;;8.80;99.90;;;;;;5027415;28;20434;-80
2023/03/16 12:36:51;;;;;;;0.20;0.20;;;8.80;99.90;;;;;;5023524;28;20876;-80
2023/03/16 12:39:32;;;;;;;0.20;0.20;;;8.80;99.90;;;;;;5028151;28;20503;-80
2023/03/16 12:42:22;;;;;;;0.30;0.30;;;9.00;99.90;;;;;;5027299;28;20470;-80
2023/03/16 12:44:52;;;;;;;0.20;0.20;;;9.30;99.90;;;;;;5038024;28;20469;-80
2023/03/16 12:47:57;;;;;;;0.20;0.20;;;9.60;99.90;;;;;;5038122;28;20550;-80
2023/03/16 12:50:24;;;;;;;0.20;0.20;;;9.80;99.90;;;;;;5037651;28;20510;-80
2023/03/16 12:52:51;;;;;;;0.20;0.20;;;10.20;99.90;;;;;;5049276;28;20477;-80
2023/03/16 12:55:19;;;;;;;0.20;0.20;;;10.10;99.90;;;;;;5036241;28;20551;-79
2023/03/16 12:57:48;;;;;;;0.20;0.20;;;9.90;99.90;;;;;;5034100;28;21091;-79
2023/03/16 13:00:15;;;;;;;0.20;0.20;;;10.00;99.90;;;;;;5028889;28;20959;-79
2023/03/16 13:02:50;;;;;;;0.30;0.30;;;9.70;99.90;;;;;;5042023;28;20444;-79
2023/03/16 13:05:27;;;;;;;0.20;0.20;;;9.50;99.90;;;;;;5050096;28;20413;-80
2023/03/16 13:08:04;;;;;;;0.20;0.20;;;9.20;99.90;;;;;;5050220;28;20420;-80
2023/03/16 13:10:30;;;;;;;0.20;0.20;;;9.20;99.90;;;;;;5050667;28;20419;-80
2023/03/16 13:13:07;;;;;;;0.20;0.20;;;9.00;99.90;;;;;;5024958;28;20483;-80